createdAt,value
2023-04-27T00:00:37.751Z,92.8768
2023-04-27T00:01:38.293Z,93.1247
2023-04-27T00:02:39.575Z,93.2584
2023-04-27T00:03:40.003Z,93.4473
2023-04-27T00:04:40.303Z,93.5818
2023-04-27T00:05:40.354Z,93.6355
2023-04-27T00:06:40.332Z,93.7048
2023-04-27T00:07:40.972Z,93.6928
2023-04-27T00:08:41.528Z,93.7072
2023-04-27T00:09:41.938Z,93.8337
2023-04-27T00:10:42.611Z,93.8927
2023-04-27T00:11:43.233Z,93.9722
2023-04-27T00:12:43.838Z,94.2007
2023-04-27T00:13:44.376Z,94.4976
2023-04-27T00:14:44.933Z,94.6170
2023-04-27T00:15:45.485Z,94.7475
2023-04-27T00:16:46.074Z,94.8439
2023-04-27T00:17:46.872Z,94.9550
2023-04-27T00:18:47.651Z,94.9962
2023-04-27T00:19:47.629Z,95.0225
2023-04-27T00:20:48.087Z,95.0479
2023-04-27T00:21:48.863Z,95.0674
2023-04-27T00:22:49.389Z,95.0911
2023-04-27T00:23:50.020Z,95.0994
2023-04-27T00:24:50.691Z,95.0911
2023-04-27T00:25:51.413Z,95.0730
2023-04-27T00:26:52.058Z,95.0516
2023-04-27T00:27:52.665Z,95.0714
2023-04-27T00:28:53.083Z,95.1080
2023-04-27T00:29:53.689Z,95.1372
2023-04-27T00:30:54.176Z,95.1874
2023-04-27T00:31:54.956Z,95.2206
2023-04-27T00:32:55.836Z,95.2651
2023-04-27T00:33:56.415Z,95.2902
2023-04-27T00:34:57.063Z,95.3055
2023-04-27T00:35:57.782Z,95.3336
2023-04-27T00:36:58.298Z,95.2813
2023-04-27T00:37:58.893Z,95.2699
2023-04-27T00:38:59.287Z,95.2836
2023-04-27T00:39:59.820Z,95.2917
2023-04-27T00:41:00.467Z,95.2943
2023-04-27T00:42:00.854Z,95.2530
2023-04-27T00:43:01.652Z,95.1818
2023-04-27T00:44:02.251Z,95.1094
2023-04-27T00:45:02.675Z,94.9356
2023-04-27T00:46:03.831Z,94.8594
2023-04-27T00:47:04.358Z,94.8635
2023-04-27T00:48:05.347Z,94.8980
2023-04-27T00:49:05.906Z,94.9153
2023-04-27T00:50:07.178Z,94.9473
2023-04-27T00:51:07.897Z,94.9822
2023-04-27T00:52:08.735Z,95.0060
2023-04-27T00:53:09.231Z,95.0435
2023-04-27T00:54:09.852Z,95.1174
2023-04-27T00:55:10.566Z,95.1662
2023-04-27T00:56:10.986Z,95.1875
2023-04-27T00:57:11.574Z,95.1500
2023-04-27T00:58:12.033Z,95.1342
2023-04-27T00:59:12.965Z,95.0946
2023-04-27T01:00:13.772Z,95.0882
2023-04-27T01:01:14.431Z,95.0713
2023-04-27T01:04:16.368Z,95.2059
2023-04-27T01:05:16.502Z,95.2429
2023-04-27T01:06:17.028Z,95.3032
2023-04-27T01:07:17.649Z,95.4033
2023-04-27T01:08:18.835Z,95.5192
2023-04-27T01:09:19.468Z,95.5994
2023-04-27T01:10:19.545Z,95.6693
2023-04-27T01:11:20.194Z,95.7894
2023-04-27T01:12:20.737Z,95.8478
2023-04-27T01:13:21.386Z,95.8758
2023-04-27T01:14:22.116Z,95.9152
2023-04-27T01:15:22.540Z,95.9447
2023-04-27T01:16:23.191Z,95.9836
2023-04-27T01:17:23.935Z,96.0575
2023-04-27T01:18:24.861Z,96.1087
2023-04-27T01:19:25.789Z,96.1466
2023-04-27T01:20:26.304Z,96.1717
2023-04-27T01:21:27.280Z,96.2076
2023-04-27T01:22:27.895Z,96.2233
2023-04-27T01:23:28.331Z,96.2417
2023-04-27T01:24:29.035Z,96.2254
2023-04-27T01:25:29.527Z,96.2211
2023-04-27T01:26:30.169Z,96.2195
2023-04-27T01:27:30.941Z,96.2160
2023-04-27T01:28:31.361Z,96.2190
2023-04-27T01:29:32.151Z,96.2151
2023-04-27T01:30:33.270Z,96.1812
2023-04-27T01:31:33.416Z,96.1592
2023-04-27T01:32:33.758Z,96.1299
2023-04-27T01:33:34.519Z,96.1083
2023-04-27T01:34:35.069Z,96.0792
2023-04-27T01:35:35.795Z,96.0758
2023-04-27T01:36:36.470Z,96.0188
2023-04-27T01:37:37.397Z,95.9326
2023-04-27T01:38:38.020Z,95.9408
2023-04-27T01:39:38.462Z,95.9539
2023-04-27T01:40:39.266Z,95.9934
2023-04-27T01:41:39.731Z,96.0378
2023-04-27T01:42:40.264Z,96.1096
2023-04-27T01:43:40.931Z,96.1518
2023-04-27T01:44:41.402Z,96.2169
2023-04-27T01:45:42.043Z,96.3963
2023-04-27T01:46:43.129Z,96.4486
2023-04-27T01:47:43.808Z,96.5365
2023-04-27T01:48:44.741Z,96.5557
2023-04-27T01:49:45.953Z,96.5761
2023-04-27T01:50:46.353Z,96.5958
2023-04-27T01:51:46.897Z,96.6215
2023-04-27T01:52:47.427Z,96.6517
2023-04-27T01:53:48.181Z,96.6650
2023-04-27T01:54:48.659Z,96.6777
2023-04-27T01:55:49.189Z,96.6995
2023-04-27T01:56:50.137Z,96.7162
2023-04-27T01:57:50.873Z,96.7222
2023-04-27T01:58:51.267Z,96.7422
2023-04-27T01:59:51.911Z,96.7434
2023-04-27T02:00:52.193Z,96.7502
2023-04-27T02:01:53.073Z,96.7627
2023-04-27T02:02:53.519Z,96.7678
2023-04-27T02:03:53.567Z,96.7790
2023-04-27T02:04:54.083Z,96.7991
2023-04-27T02:05:54.499Z,96.8068
2023-04-27T02:06:55.429Z,96.7985
2023-04-27T02:07:56.270Z,96.8418
2023-04-27T02:08:56.824Z,96.9128
2023-04-27T02:09:57.404Z,96.9664
2023-04-27T02:10:58.363Z,96.9970
2023-04-27T02:11:59.113Z,97.0127
2023-04-27T02:12:59.726Z,97.0344
2023-04-27T02:14:00.552Z,97.0443
2023-04-27T02:15:01.360Z,97.0696
2023-04-27T02:16:02.180Z,97.0953
2023-04-27T02:17:03.299Z,97.1162
2023-04-27T02:18:04.399Z,97.1462
2023-04-27T02:19:05.300Z,97.1714
2023-04-27T02:20:06.122Z,97.2165
2023-04-27T02:21:06.892Z,97.2826
2023-04-27T02:22:07.597Z,97.3279
2023-04-27T02:23:08.087Z,97.4064
2023-04-27T02:24:08.873Z,97.4480
2023-04-27T02:25:10.289Z,97.4928
2023-04-27T02:26:11.156Z,97.5470
2023-04-27T02:28:11.568Z,97.5960
2023-04-27T02:29:12.619Z,97.6055
2023-04-27T02:30:13.182Z,97.6190
2023-04-27T02:31:14.281Z,97.6316
2023-04-27T02:32:15.345Z,97.6577
2023-04-27T02:33:16.278Z,97.6724
2023-04-27T02:34:16.840Z,97.6865
2023-04-27T02:35:17.975Z,97.7112
2023-04-27T02:36:18.723Z,97.7304
2023-04-27T02:37:19.185Z,97.7749
2023-04-27T02:38:19.993Z,97.8017
2023-04-27T02:39:20.548Z,97.8176
2023-04-27T02:40:21.185Z,97.8329
2023-04-27T02:41:21.937Z,97.8480
2023-04-27T02:42:22.415Z,97.8687
2023-04-27T02:43:23.247Z,97.8949
2023-04-27T02:44:23.901Z,97.9148
2023-04-27T02:45:24.577Z,97.9337
2023-04-27T02:46:25.554Z,97.9351
2023-04-27T02:47:26.436Z,97.9329
2023-04-27T02:48:27.260Z,97.9349
2023-04-27T02:49:27.694Z,97.9443
2023-04-27T02:50:27.900Z,97.9573
2023-04-27T02:51:28.732Z,97.9730
2023-04-27T02:52:29.302Z,97.9654
2023-04-27T02:53:30.333Z,97.9769
2023-04-27T02:54:30.929Z,97.9896
2023-04-27T02:55:31.538Z,98.0114
2023-04-27T02:56:32.396Z,98.0289
2023-04-27T02:57:33.133Z,98.0303
2023-04-27T02:58:33.603Z,98.0204
2023-04-27T02:59:34.763Z,98.0275
2023-04-27T03:00:35.573Z,98.0279
2023-04-27T03:01:36.545Z,98.0464
2023-04-27T03:02:36.595Z,98.0539
2023-04-27T03:03:37.594Z,98.0532
2023-04-27T03:04:38.695Z,98.0643
2023-04-27T03:06:38.797Z,98.1031
2023-04-27T03:07:39.451Z,98.1191
2023-04-27T03:08:40.159Z,98.1489
2023-04-27T03:09:40.865Z,98.1588
2023-04-27T03:10:41.513Z,98.1753
2023-04-27T03:11:42.092Z,98.2029
2023-04-27T03:12:42.814Z,98.2151
2023-04-27T03:13:43.510Z,98.2274
2023-04-27T03:14:44.015Z,98.2281
2023-04-27T03:15:44.034Z,98.2247
2023-04-27T03:16:44.696Z,98.2305
2023-04-27T03:17:45.545Z,98.2311
2023-04-27T03:18:46.245Z,98.2274
2023-04-27T03:19:47.440Z,98.2320
2023-04-27T03:20:47.952Z,98.2229
2023-04-27T03:21:48.727Z,98.2256
2023-04-27T03:22:49.283Z,98.2228
2023-04-27T03:23:49.946Z,98.2291
2023-04-27T03:24:50.633Z,98.2420
2023-04-27T03:25:51.183Z,98.2485
2023-04-27T03:26:51.834Z,98.2431
2023-04-27T03:27:52.287Z,98.2528
2023-04-27T03:28:54.724Z,98.2481
2023-04-27T03:29:55.437Z,98.2401
2023-04-27T03:30:55.836Z,98.2440
2023-04-27T03:31:56.896Z,98.2396
2023-04-27T03:32:57.453Z,98.2468
2023-04-27T03:33:57.873Z,98.2184
2023-04-27T03:34:58.536Z,98.1902
2023-04-27T03:35:59.114Z,98.2228
2023-04-27T03:36:59.571Z,98.2445
2023-04-27T03:38:00.215Z,98.2605
2023-04-27T03:39:00.709Z,98.2777
2023-04-27T03:40:01.783Z,98.2959
2023-04-27T03:41:02.470Z,98.3060
2023-04-27T03:42:02.909Z,98.3139
2023-04-27T03:43:03.824Z,98.3352
2023-04-27T03:44:04.462Z,98.3501
2023-04-27T03:45:04.944Z,98.3614
2023-04-27T03:46:06.144Z,98.3755
2023-04-27T03:47:06.901Z,98.3858
2023-04-27T03:48:08.141Z,98.4037
2023-04-27T03:49:08.757Z,98.4339
2023-04-27T03:50:08.873Z,98.4647
2023-04-27T03:51:09.558Z,98.4931
2023-04-27T03:52:10.268Z,98.5041
2023-04-27T03:53:10.988Z,98.5343
2023-04-27T03:54:11.837Z,98.5526
2023-04-27T03:55:12.579Z,98.5728
2023-04-27T03:56:13.167Z,98.5846
2023-04-27T03:57:13.855Z,98.5961
2023-04-27T03:58:14.680Z,98.6096
2023-04-27T03:59:15.487Z,98.6231
2023-04-27T04:00:15.140Z,98.6206
2023-04-27T04:01:16.142Z,98.6329
2023-04-27T04:02:17.130Z,98.6470
2023-04-27T04:03:18.384Z,98.6586
2023-04-27T04:04:18.648Z,98.6535
2023-04-27T04:05:19.313Z,98.6561
2023-04-27T04:12:29.156Z,98.7666
2023-04-27T04:13:30.177Z,98.7948
2023-04-27T04:19:37.782Z,98.8336
2023-04-27T04:20:38.542Z,98.8317
2023-04-27T04:21:39.570Z,98.8247
2023-04-27T04:22:40.090Z,98.8149
2023-04-27T04:31:54.283Z,98.7419
2023-04-27T04:32:55.138Z,98.7684
2023-04-27T04:33:55.845Z,98.7618
2023-04-27T04:34:56.347Z,98.7670
2023-04-27T04:35:56.843Z,98.8132
2023-04-27T04:36:57.881Z,98.8308
2023-04-27T04:38:00.238Z,98.8462
2023-04-27T04:39:02.177Z,98.8477
2023-04-27T04:40:03.446Z,98.8644
2023-04-27T04:41:04.654Z,98.8894
2023-04-27T04:42:05.476Z,98.9043
2023-04-27T04:43:05.736Z,98.9192
2023-04-27T04:44:06.246Z,98.9552
2023-04-27T04:45:08.530Z,98.9741
2023-04-27T04:46:10.767Z,98.9873
2023-04-27T04:47:12.114Z,99.0051
2023-04-27T04:48:13.149Z,99.0208
2023-04-27T04:49:14.236Z,99.0354
2023-04-27T04:50:15.515Z,99.0520
2023-04-27T04:51:14.483Z,99.0665
2023-04-27T04:52:25.982Z,99.0772
2023-04-27T04:53:26.895Z,99.0959
2023-04-27T04:54:28.080Z,99.0940
2023-04-27T04:55:28.512Z,99.0235
2023-04-27T04:56:29.515Z,98.9350
2023-04-27T04:57:31.797Z,98.8796
2023-04-27T04:58:33.135Z,98.8590
2023-04-27T04:59:33.333Z,98.8537
2023-04-27T05:00:33.990Z,98.8599
2023-04-27T05:01:34.927Z,98.8733
2023-04-27T05:02:36.176Z,98.8893
2023-04-27T05:03:37.799Z,98.9100
2023-04-27T05:04:38.622Z,98.9408
2023-04-27T05:06:38.929Z,98.9609
2023-04-27T05:07:39.682Z,98.9588
2023-04-27T05:08:40.019Z,98.9711
2023-04-27T05:09:40.680Z,98.9845
2023-04-27T05:10:41.822Z,98.9928
2023-04-27T05:11:42.678Z,99.0042
2023-04-27T05:12:43.712Z,99.0302
2023-04-27T05:13:44.591Z,98.9888
2023-04-27T05:14:45.046Z,98.8920
2023-04-27T05:15:45.566Z,98.8155
2023-04-27T05:21:54.435Z,98.8249
2023-04-27T05:22:56.120Z,98.8574
2023-04-27T05:23:56.677Z,98.8605
2023-04-27T05:25:09.325Z,98.8583
2023-04-27T05:26:10.334Z,98.8363
2023-04-27T05:27:10.373Z,98.8162
2023-04-27T05:28:11.890Z,98.8141
2023-04-27T05:29:12.255Z,98.8146
2023-04-27T05:30:13.029Z,98.8372
2023-04-27T05:31:14.424Z,98.8688
2023-04-27T05:32:15.791Z,98.9219
2023-04-27T05:33:16.575Z,98.9431
2023-04-27T05:34:17.902Z,98.9500
2023-04-27T05:35:18.244Z,98.9675
2023-04-27T05:36:19.245Z,98.9916
2023-04-27T05:37:20.561Z,99.0122
2023-04-27T05:38:21.317Z,99.0270
2023-04-27T05:39:22.166Z,99.0372
2023-04-27T05:40:22.976Z,99.0329
2023-04-27T05:41:24.182Z,99.0394
2023-04-27T05:44:26.383Z,99.1105
2023-04-27T05:45:28.380Z,99.1175
2023-04-27T05:46:32.867Z,99.1334
2023-04-27T05:48:29.932Z,99.1950
2023-04-27T05:49:30.689Z,99.2006
2023-04-27T05:50:31.187Z,99.2028
2023-04-27T05:56:38.911Z,99.1901
2023-04-27T05:57:39.749Z,99.1881
2023-04-27T05:58:40.099Z,99.1760
2023-04-27T05:59:40.634Z,99.1680
2023-04-27T06:00:41.452Z,99.1543
2023-04-27T06:01:42.306Z,99.1521
2023-04-27T06:02:42.626Z,99.1354
2023-04-27T06:03:42.826Z,99.1382
2023-04-27T06:04:43.229Z,99.1120
2023-04-27T06:05:43.255Z,99.0977
2023-04-27T06:06:44.624Z,99.0863
2023-04-27T06:07:45.390Z,99.0712
2023-04-27T06:08:46.345Z,99.0420
2023-04-27T06:09:47.565Z,99.0110
2023-04-27T06:10:48.114Z,98.9943
2023-04-27T06:11:48.976Z,98.9733
2023-04-27T06:12:49.572Z,98.9681
2023-04-27T06:13:50.224Z,98.9728
2023-04-27T06:14:51.312Z,98.9735
2023-04-27T06:15:52.029Z,98.9952
2023-04-27T06:16:52.832Z,99.0039
2023-04-27T06:17:53.777Z,98.9998
2023-04-27T06:18:54.405Z,98.9901
2023-04-27T06:19:55.118Z,98.9819
2023-04-27T06:20:56.097Z,98.9569
2023-04-27T06:21:57.157Z,98.9381
2023-04-27T06:22:57.745Z,98.9472
2023-04-27T06:23:58.696Z,98.9366
2023-04-27T06:24:59.466Z,98.9104
2023-04-27T06:26:01.138Z,98.8491
2023-04-27T06:27:00.330Z,98.8057
2023-04-27T06:28:01.016Z,98.5243
2023-04-27T06:29:01.848Z,97.8129
2023-04-27T06:30:02.358Z,97.3580
2023-04-27T06:31:03.417Z,97.2440
2023-04-27T06:32:04.794Z,96.9378
2023-04-27T06:33:05.702Z,96.7544
2023-04-27T06:34:06.402Z,97.0640
2023-04-27T06:35:07.147Z,97.2917
2023-04-27T06:36:08.149Z,97.3688
2023-04-27T06:37:09.075Z,97.4982
2023-04-27T06:38:10.002Z,97.6154
2023-04-27T06:39:10.482Z,97.6096
2023-04-27T06:40:11.429Z,97.5157
2023-04-27T06:41:12.057Z,97.5061
2023-04-27T06:42:12.796Z,97.4841
2023-04-27T06:43:13.602Z,97.3130
2023-04-27T06:44:14.837Z,97.0099
2023-04-27T06:45:15.489Z,97.0121
2023-04-27T06:46:16.392Z,97.0131
2023-04-27T06:47:17.076Z,96.7214
2023-04-27T06:48:17.913Z,96.3088
2023-04-27T06:49:18.645Z,96.1504
2023-04-27T06:50:19.083Z,95.8774
2023-04-27T06:51:19.698Z,95.4364
2023-04-27T06:52:20.397Z,95.4542
2023-04-27T06:53:20.741Z,95.5086
2023-04-27T06:54:21.424Z,95.4033
2023-04-27T06:55:21.912Z,95.5047
2023-04-27T06:56:22.155Z,96.1140
2023-04-27T06:57:22.812Z,96.5944
2023-04-27T06:58:23.555Z,96.4044
2023-04-27T06:59:24.893Z,95.7805
2023-04-27T07:00:25.682Z,95.5797
2023-04-27T07:01:26.537Z,95.2124
2023-04-27T07:02:28.191Z,95.2244
2023-04-27T07:03:28.248Z,95.1612
2023-04-27T07:04:29.253Z,95.3804
2023-04-27T07:05:29.119Z,95.4558
2023-04-27T07:06:29.675Z,95.6475
2023-04-27T07:07:30.365Z,95.8246
2023-04-27T07:08:30.875Z,95.8712
2023-04-27T07:09:31.622Z,95.6478
2023-04-27T07:10:32.178Z,95.4709
2023-04-27T07:11:32.960Z,95.5477
2023-04-27T07:12:33.374Z,95.3894
2023-04-27T07:13:34.012Z,95.5322
2023-04-27T07:14:34.660Z,95.6146
2023-04-27T07:15:35.164Z,95.6594
2023-04-27T07:16:36.065Z,95.5239
2023-04-27T07:17:37.151Z,95.4191
2023-04-27T07:18:37.830Z,94.8143
2023-04-27T07:19:38.980Z,93.9367
2023-04-27T07:20:39.761Z,94.2444
2023-04-27T07:21:40.462Z,94.8799
2023-04-27T07:22:41.124Z,94.8743
2023-04-27T07:23:41.619Z,93.8044
2023-04-27T07:24:42.177Z,93.6841
2023-04-27T07:25:42.876Z,93.6957
2023-04-27T07:26:43.409Z,93.4683
2023-04-27T07:27:44.105Z,93.0677
2023-04-27T07:28:44.732Z,93.4868
2023-04-27T07:29:45.197Z,93.6798
2023-04-27T07:30:45.884Z,94.0905
2023-04-27T07:31:46.818Z,94.3149
2023-04-27T07:32:47.729Z,92.8829
2023-04-27T07:33:48.517Z,92.6995
2023-04-27T07:34:53.703Z,93.0358
2023-04-27T07:35:50.310Z,92.7300
2023-04-27T07:36:51.066Z,92.8288
2023-04-27T07:37:51.805Z,93.3083
2023-04-27T07:38:52.285Z,91.7942
2023-04-27T07:39:53.019Z,90.8508
2023-04-27T07:40:53.254Z,90.4265
2023-04-27T07:41:53.884Z,90.9754
2023-04-27T07:42:54.598Z,89.5163
2023-04-27T07:43:55.047Z,88.5805
2023-04-27T07:44:55.809Z,88.2864
2023-04-27T07:45:56.669Z,89.0547
2023-04-27T07:46:57.756Z,90.0141
2023-04-27T07:47:58.994Z,89.9097
2023-04-27T07:48:58.751Z,91.2902
2023-04-27T07:49:59.261Z,91.8754
2023-04-27T07:50:59.922Z,90.8046
2023-04-27T07:52:00.387Z,89.9878
2023-04-27T07:53:01.058Z,90.5849
2023-04-27T07:54:01.887Z,92.2556
2023-04-27T07:55:02.753Z,91.7880
2023-04-27T07:56:03.551Z,89.9294
2023-04-27T07:57:04.281Z,88.8805
2023-04-27T07:58:04.872Z,88.8786
2023-04-27T07:59:05.566Z,87.0679
2023-04-27T08:00:06.714Z,86.7865
2023-04-27T08:01:07.538Z,86.0228
2023-04-27T08:02:19.697Z,86.7747
2023-04-27T08:03:12.509Z,86.4903
2023-04-27T08:04:12.646Z,87.4984
2023-04-27T08:05:12.925Z,86.0931
2023-04-27T08:06:13.201Z,86.0697
2023-04-27T08:07:14.072Z,86.3884
2023-04-27T08:08:14.899Z,87.5767
2023-04-27T08:09:14.758Z,86.0015
2023-04-27T08:10:14.534Z,85.2151
2023-04-27T08:11:15.199Z,86.1862
2023-04-27T08:12:16.105Z,87.6108
2023-04-27T08:13:16.665Z,85.8927
2023-04-27T08:14:17.169Z,87.0179
2023-04-27T08:15:18.247Z,89.1006
2023-04-27T08:16:18.930Z,90.8549
2023-04-27T08:17:20.124Z,91.6855
2023-04-27T08:18:21.176Z,92.1445
2023-04-27T08:19:22.066Z,93.0090
2023-04-27T08:20:22.844Z,92.2132
2023-04-27T08:21:23.528Z,92.4328
2023-04-27T08:22:24.190Z,93.1643
2023-04-27T08:23:24.998Z,93.3228
2023-04-27T08:24:25.657Z,93.4166
2023-04-27T08:25:26.373Z,92.1985
2023-04-27T08:26:28.543Z,88.6514
2023-04-27T08:27:29.255Z,88.1734
2023-04-27T08:28:29.988Z,86.5595
2023-04-27T08:29:30.969Z,86.8355
2023-04-27T08:30:31.718Z,85.7068
2023-04-27T08:31:32.474Z,84.8140
2023-04-27T08:32:33.884Z,85.2042
2023-04-27T08:33:34.736Z,86.5247
2023-04-27T08:34:35.240Z,87.7371
2023-04-27T08:35:35.981Z,88.3006
2023-04-27T08:36:36.548Z,88.8111
2023-04-27T08:37:37.273Z,90.1692
2023-04-27T08:38:37.944Z,88.7700
2023-04-27T08:39:38.941Z,85.4747
2023-04-27T08:40:39.655Z,85.6862
2023-04-27T08:41:40.311Z,85.8975
2023-04-27T08:42:41.035Z,87.1659
2023-04-27T08:43:41.858Z,86.6649
2023-04-27T08:44:42.955Z,87.2483
2023-04-27T08:45:43.499Z,88.5610
2023-04-27T08:46:44.719Z,84.4549
2023-04-27T08:47:46.159Z,86.1271
2023-04-27T08:48:47.004Z,88.5521
2023-04-27T08:49:47.207Z,88.8396
2023-04-27T08:50:47.447Z,89.6111
2023-04-27T08:51:48.181Z,86.8735
2023-04-27T08:52:48.930Z,87.2727
2023-04-27T08:53:49.546Z,88.9838
2023-04-27T08:54:50.255Z,89.5131
2023-04-27T08:55:51.065Z,87.6315
2023-04-27T08:56:51.650Z,86.9038
2023-04-27T08:57:52.356Z,87.6261
2023-04-27T08:58:52.824Z,87.6712
2023-04-27T08:59:53.480Z,88.1992
2023-04-27T09:00:54.443Z,86.3986
2023-04-27T09:01:55.520Z,86.6841
2023-04-27T09:02:56.000Z,87.5389
2023-04-27T09:03:56.280Z,87.6210
2023-04-27T09:04:57.316Z,84.7423
2023-04-27T09:06:06.005Z,83.4913
2023-04-27T09:07:04.486Z,85.2166
2023-04-27T09:08:05.144Z,87.2385
2023-04-27T09:09:05.886Z,83.8087
2023-04-27T09:10:07.164Z,84.1630
2023-04-27T09:11:07.742Z,85.0482
2023-04-27T09:12:08.365Z,87.1499
2023-04-27T09:13:08.893Z,87.6007
2023-04-27T09:14:09.554Z,87.2788
2023-04-27T09:15:10.264Z,86.3636
2023-04-27T09:16:11.029Z,87.1454
2023-04-27T09:17:11.086Z,85.7111
2023-04-27T09:18:11.919Z,85.6798
2023-04-27T09:19:12.890Z,84.6082
2023-04-27T09:20:13.692Z,84.1589
2023-04-27T09:21:14.796Z,80.7692
2023-04-27T09:22:15.159Z,78.3212
2023-04-27T09:23:15.884Z,78.3318
2023-04-27T09:24:16.615Z,77.0326
2023-04-27T09:25:17.089Z,78.8812
2023-04-27T09:26:17.853Z,79.4124
2023-04-27T09:27:18.696Z,78.8741
2023-04-27T09:28:19.541Z,78.7438
2023-04-27T09:29:20.220Z,79.2271
2023-04-27T09:30:21.044Z,78.6710
2023-04-27T09:31:21.835Z,78.0452
2023-04-27T09:32:23.006Z,78.0372
2023-04-27T09:33:23.858Z,80.6078
2023-04-27T09:34:24.838Z,77.3491
2023-04-27T09:35:25.506Z,78.0026
2023-04-27T09:36:26.004Z,81.4772
2023-04-27T09:37:26.689Z,82.7756
2023-04-27T09:38:26.776Z,83.7255
2023-04-27T09:39:27.477Z,83.9940
2023-04-27T09:40:28.160Z,83.1636
2023-04-27T09:41:28.638Z,82.4912
2023-04-27T09:42:29.313Z,81.6903
2023-04-27T09:43:30.121Z,82.8138
2023-04-27T09:44:30.855Z,83.0254
2023-04-27T09:45:31.609Z,78.9828
2023-04-27T09:46:32.611Z,76.9194
2023-04-27T09:47:33.283Z,77.7574
2023-04-27T09:48:34.112Z,79.4070
2023-04-27T09:49:35.241Z,79.2816
2023-04-27T09:50:37.899Z,81.6572
2023-04-27T09:51:36.417Z,81.1409
2023-04-27T09:52:37.154Z,80.0492
2023-04-27T09:53:37.918Z,79.0749
2023-04-27T09:54:38.562Z,78.6638
2023-04-27T09:55:39.087Z,77.3623
2023-04-27T09:56:39.748Z,75.6980
2023-04-27T09:57:40.222Z,75.6333
2023-04-27T09:58:40.919Z,73.0991
2023-04-27T09:59:41.794Z,72.5227
2023-04-27T10:00:42.311Z,73.4310
2023-04-27T10:01:43.528Z,76.8728
2023-04-27T10:02:53.051Z,77.6479
2023-04-27T10:03:48.640Z,78.7143
2023-04-27T10:04:49.067Z,78.2406
2023-04-27T10:05:50.000Z,74.4662
2023-04-27T10:06:50.621Z,76.8734
2023-04-27T10:07:51.341Z,73.4278
2023-04-27T10:08:51.858Z,74.1712
2023-04-27T10:09:52.038Z,71.6634
2023-04-27T10:10:53.148Z,72.8122
2023-04-27T10:11:53.636Z,70.9098
2023-04-27T10:12:54.394Z,73.9794
2023-04-27T10:13:55.117Z,68.1018
2023-04-27T10:14:56.095Z,70.9288
2023-04-27T10:15:56.827Z,69.0211
2023-04-27T10:16:58.413Z,70.2190
2023-04-27T10:17:59.340Z,70.4744
2023-04-27T10:19:00.511Z,74.7390
2023-04-27T10:20:01.392Z,72.2955
2023-04-27T10:21:02.037Z,68.8696
2023-04-27T10:22:02.779Z,70.1649
2023-04-27T10:23:03.410Z,68.8377
2023-04-27T10:24:04.077Z,67.9319
2023-04-27T10:25:04.732Z,70.7848
2023-04-27T10:26:05.285Z,67.6261
2023-04-27T10:27:05.898Z,66.7428
2023-04-27T10:28:06.573Z,68.4514
2023-04-27T10:29:07.132Z,68.8069
2023-04-27T10:30:07.992Z,69.3472
2023-04-27T10:31:08.604Z,71.3421
2023-04-27T10:32:09.395Z,72.1430
2023-04-27T10:33:09.627Z,68.1317
2023-04-27T10:34:10.244Z,67.5176
2023-04-27T10:35:10.928Z,65.6540
2023-04-27T10:36:11.448Z,62.7569
2023-04-27T10:37:12.155Z,62.4644
2023-04-27T10:38:12.749Z,65.1348
2023-04-27T10:39:13.355Z,66.5173
2023-04-27T10:40:28.572Z,65.4621
2023-04-27T10:41:29.267Z,65.1557
2023-04-27T10:42:29.813Z,68.2068
2023-04-27T10:43:30.444Z,66.1551
2023-04-27T10:44:31.263Z,65.9127
2023-04-27T10:45:32.102Z,63.6420
2023-04-27T10:46:31.946Z,62.6434
2023-04-27T10:47:32.498Z,63.9631
2023-04-27T10:48:33.759Z,62.7797
2023-04-27T10:49:34.424Z,63.9366
2023-04-27T10:50:34.935Z,63.3953
2023-04-27T10:51:35.603Z,63.8144
2023-04-27T10:52:36.264Z,66.0443
2023-04-27T10:53:36.830Z,65.4489
2023-04-27T10:54:37.575Z,62.5920
2023-04-27T10:55:38.087Z,63.1682
2023-04-27T10:56:38.762Z,64.8531
2023-04-27T10:57:39.547Z,65.3129
2023-04-27T10:58:48.907Z,65.1694
2023-04-27T10:59:41.243Z,62.7508
2023-04-27T11:00:41.899Z,62.5946
2023-04-27T11:01:42.618Z,65.0212
2023-04-27T11:02:43.820Z,63.0238
2023-04-27T11:03:45.857Z,62.0919
2023-04-27T11:04:45.872Z,62.0414
2023-04-27T11:05:46.713Z,61.2933
2023-04-27T11:06:47.244Z,61.4386
2023-04-27T11:07:47.894Z,61.7297
2023-04-27T11:08:48.511Z,61.0048
2023-04-27T11:09:48.962Z,61.0117
2023-04-27T11:10:49.715Z,61.6849
2023-04-27T11:11:50.697Z,63.4892
2023-04-27T11:12:51.197Z,63.8057
2023-04-27T11:13:51.907Z,65.1504
2023-04-27T11:14:52.479Z,63.2082
2023-04-27T11:15:53.549Z,63.2271
2023-04-27T11:16:54.700Z,62.3924
2023-04-27T11:17:55.479Z,61.7953
2023-04-27T11:18:57.907Z,61.5009
2023-04-27T11:19:57.549Z,61.1523
2023-04-27T11:20:58.501Z,61.9236
2023-04-27T11:21:59.291Z,61.1628
2023-04-27T11:22:59.914Z,62.6809
2023-04-27T11:24:00.487Z,65.2589
2023-04-27T11:25:01.534Z,63.9739
2023-04-27T11:26:01.960Z,65.0818
2023-04-27T11:27:02.518Z,64.7659
2023-04-27T11:28:03.206Z,62.0099
2023-04-27T11:29:03.641Z,62.0632
2023-04-27T11:30:03.658Z,62.4209
2023-04-27T11:31:04.315Z,64.3220
2023-04-27T11:32:05.113Z,63.7083
2023-04-27T11:33:06.071Z,63.0755
2023-04-27T11:34:07.924Z,64.5373
2023-04-27T11:35:07.493Z,65.4678
2023-04-27T11:36:08.128Z,65.3155
2023-04-27T11:38:09.488Z,62.3475
2023-04-27T11:39:10.466Z,64.8316
2023-04-27T11:40:11.190Z,65.0210
2023-04-27T11:41:11.879Z,58.4746
2023-04-27T11:42:12.555Z,57.3527
2023-04-27T11:43:13.127Z,57.3437
2023-04-27T11:44:13.812Z,56.7645
2023-04-27T11:45:14.398Z,58.4946
2023-04-27T11:46:15.043Z,57.0626
2023-04-27T11:47:17.524Z,58.5254
2023-04-27T11:48:16.880Z,54.9991
2023-04-27T11:49:18.075Z,54.8234
2023-04-27T11:50:18.864Z,53.2110
2023-04-27T11:51:19.428Z,52.3612
2023-04-27T11:52:20.060Z,51.1182
2023-04-27T11:53:20.807Z,52.5247
2023-04-27T11:54:21.817Z,50.7001
2023-04-27T11:55:22.460Z,52.1100
2023-04-27T11:56:23.232Z,53.1029
2023-04-27T11:57:23.650Z,51.2546
2023-04-27T11:58:24.327Z,50.1740
2023-04-27T11:59:25.239Z,50.7119
2023-04-27T12:00:26.017Z,50.6631
2023-04-27T12:01:36.923Z,51.1694
2023-04-27T12:02:27.962Z,49.7200
2023-04-27T12:03:27.848Z,48.7679
2023-04-27T12:04:29.877Z,48.9616
2023-04-27T12:05:30.161Z,49.4268
2023-04-27T12:06:34.688Z,51.4725
2023-04-27T12:07:35.671Z,50.4838
2023-04-27T12:08:36.446Z,50.0461
2023-04-27T12:09:37.562Z,51.2814
2023-04-27T12:10:38.341Z,52.5801
2023-04-27T12:11:38.946Z,53.4152
2023-04-27T12:12:39.593Z,53.7257
2023-04-27T12:13:40.325Z,54.3525
2023-04-27T12:14:41.120Z,54.8256
2023-04-27T12:15:42.197Z,56.1873
2023-04-27T12:16:43.155Z,54.9045
2023-04-27T12:17:44.291Z,55.2394
2023-04-27T12:18:45.229Z,54.5548
2023-04-27T12:19:45.777Z,52.0316
2023-04-27T12:20:46.532Z,52.0427
2023-04-27T12:21:46.892Z,52.2177
2023-04-27T12:22:47.380Z,50.8985
2023-04-27T12:23:48.051Z,53.5451
2023-04-27T12:24:49.097Z,53.7751
2023-04-27T12:25:49.883Z,53.8523
2023-04-27T12:26:50.524Z,53.4580
2023-04-27T12:27:51.010Z,52.8786
2023-04-27T12:28:51.714Z,54.4838
2023-04-27T12:29:52.214Z,52.0738
2023-04-27T12:30:52.968Z,48.5923
2023-04-27T12:31:54.009Z,47.6157
2023-04-27T12:32:54.596Z,48.6356
2023-04-27T12:33:55.556Z,49.9869
2023-04-27T12:34:56.347Z,51.8464
2023-04-27T12:35:56.862Z,49.2461
2023-04-27T12:36:57.621Z,48.7228
2023-04-27T12:37:58.416Z,50.2259
2023-04-27T12:38:59.046Z,49.0746
2023-04-27T12:39:59.813Z,47.3775
2023-04-27T12:41:00.906Z,44.8532
2023-04-27T12:42:01.541Z,47.0091
2023-04-27T12:43:03.152Z,46.7781
2023-04-27T12:44:03.984Z,47.5190
2023-04-27T12:45:04.273Z,47.6121
2023-04-27T12:46:05.093Z,46.1630
2023-04-27T12:47:05.749Z,46.7068
2023-04-27T12:48:06.457Z,47.1292
2023-04-27T12:49:07.169Z,44.5482
2023-04-27T12:50:07.789Z,43.1660
2023-04-27T12:51:08.396Z,45.5418
2023-04-27T12:52:08.951Z,47.8801
2023-04-27T12:53:09.542Z,49.5350
2023-04-27T12:54:11.281Z,47.8209